createdAt,value
2023-05-19T00:01:52.533Z,2.08
2023-05-19T00:04:21.323Z,2.00
2023-05-19T00:06:52.131Z,2.20
2023-05-19T00:09:20.727Z,1.90
2023-05-19T00:11:49.440Z,2.30
2023-05-19T00:14:19.672Z,2.00
2023-05-19T00:16:48.884Z,1.85
2023-05-19T00:19:17.761Z,1.95
2023-05-19T00:21:46.013Z,2.05
2023-05-19T00:24:14.295Z,2.03
2023-05-19T00:26:42.569Z,1.90
2023-05-19T00:29:10.750Z,1.80
2023-05-19T00:31:40.437Z,2.08
2023-05-19T00:34:08.662Z,1.80
2023-05-19T00:36:36.864Z,1.80
2023-05-19T00:39:05.183Z,1.95
2023-05-19T00:41:33.442Z,1.67
2023-05-19T00:44:01.593Z,1.83
2023-05-19T00:46:30.475Z,2.00
2023-05-19T00:49:00.081Z,1.50
2023-05-19T00:51:29.750Z,1.83
2023-05-19T00:53:58.005Z,2.35
2023-05-19T00:56:26.541Z,1.92
2023-05-19T00:58:56.052Z,1.88
2023-05-19T01:01:26.845Z,1.90
2023-05-19T01:06:27.866Z,2.20
2023-05-19T01:08:57.427Z,2.05
2023-05-19T01:11:25.623Z,2.17
2023-05-19T01:13:53.980Z,2.28
2023-05-19T01:16:30.927Z,2.00
2023-05-19T01:19:03.983Z,2.08
2023-05-19T01:22:13.851Z,2.10
2023-05-19T01:25:17.707Z,2.05
2023-05-19T01:28:16.018Z,2.05
2023-05-19T01:30:46.596Z,1.80
2023-05-19T01:33:16.312Z,1.92
2023-05-19T01:35:46.642Z,1.88
2023-05-19T01:38:16.719Z,1.83
2023-05-19T01:40:46.227Z,1.80
2023-05-19T01:43:18.185Z,1.92
2023-05-19T01:45:49.117Z,1.77
2023-05-19T01:48:18.973Z,1.90
2023-05-19T01:50:47.922Z,1.67
2023-05-19T01:53:16.287Z,1.73
2023-05-19T01:55:48.217Z,1.98
2023-05-19T01:58:22.490Z,1.60
2023-05-19T02:00:59.359Z,2.00
2023-05-19T02:03:38.586Z,1.80
2023-05-19T02:06:21.829Z,1.90
2023-05-19T02:09:03.897Z,1.90
2023-05-19T02:11:37.887Z,1.67
2023-05-19T02:14:14.883Z,2.10
2023-05-19T02:16:47.071Z,1.90
2023-05-19T02:19:25.303Z,1.88
2023-05-19T02:21:53.586Z,1.70
2023-05-19T02:24:22.965Z,2.00
2023-05-19T02:26:52.193Z,2.20
2023-05-19T02:29:20.483Z,2.05
2023-05-19T02:31:50.406Z,1.90
2023-05-19T02:34:19.049Z,1.85
2023-05-19T02:36:49.816Z,1.77
2023-05-19T02:39:18.040Z,2.40
2023-05-19T02:41:46.290Z,1.70
2023-05-19T02:44:14.445Z,1.75
2023-05-19T02:46:42.733Z,1.98
2023-05-19T02:49:12.491Z,2.10
2023-05-19T02:51:40.689Z,2.40
2023-05-19T02:54:08.911Z,2.08
2023-05-19T02:56:37.084Z,1.80
2023-05-19T02:59:05.260Z,2.20
2023-05-19T03:01:33.809Z,2.58
2023-05-19T03:04:02.358Z,2.20
2023-05-19T03:06:32.869Z,2.08
2023-05-19T03:09:01.051Z,2.15
2023-05-19T03:11:29.677Z,1.98
2023-05-19T03:13:58.051Z,2.03
2023-05-19T03:16:28.152Z,2.03
2023-05-19T03:18:57.352Z,2.45
2023-05-19T03:21:25.815Z,2.00
2023-05-19T03:23:55.870Z,1.85
2023-05-19T03:26:24.657Z,2.03
2023-05-19T03:28:53.010Z,2.05
2023-05-19T03:31:21.221Z,2.03
2023-05-19T03:33:49.492Z,2.10
2023-05-19T03:36:17.676Z,1.90
2023-05-19T03:38:45.854Z,2.20
2023-05-19T03:41:15.449Z,2.03
2023-05-19T03:43:43.646Z,1.88
2023-05-19T03:46:11.890Z,2.10
2023-05-19T03:48:40.077Z,1.98
2023-05-19T03:51:09.088Z,2.00
2023-05-19T03:53:37.991Z,2.00
2023-05-19T03:56:07.599Z,2.15
2023-05-19T03:58:39.417Z,2.08
2023-05-19T04:01:07.607Z,2.10
2023-05-19T04:03:35.934Z,2.13
2023-05-19T04:06:04.181Z,1.92
2023-05-19T04:08:32.552Z,2.00
2023-05-19T04:11:00.716Z,2.00
2023-05-19T04:13:28.990Z,2.10
2023-05-19T04:15:58.657Z,2.10
2023-05-19T04:18:28.939Z,2.00
2023-05-19T04:20:57.443Z,2.30
2023-05-19T04:23:25.691Z,1.80
2023-05-19T04:25:54.461Z,2.13
2023-05-19T04:28:23.968Z,2.45
2023-05-19T04:30:52.237Z,2.10
2023-05-19T04:33:21.938Z,1.90
2023-05-19T04:35:50.532Z,2.17
2023-05-19T04:38:20.305Z,2.08
2023-05-19T04:40:50.245Z,2.10
2023-05-19T04:43:19.383Z,2.30
2023-05-19T04:45:50.285Z,2.47
2023-05-19T04:48:19.132Z,2.28
2023-05-19T04:50:48.970Z,2.08
2023-05-19T04:53:17.822Z,2.10
2023-05-19T04:55:46.662Z,2.20
2023-05-19T04:58:14.856Z,1.98
2023-05-19T05:00:44.200Z,2.45
2023-05-19T05:03:14.763Z,2.00
2023-05-19T05:05:42.978Z,1.87
2023-05-19T05:08:15.153Z,1.88
2023-05-19T05:10:43.633Z,2.33
2023-05-19T05:13:12.441Z,2.17
2023-05-19T05:15:41.083Z,2.10
2023-05-19T05:18:10.175Z,2.33
2023-05-19T05:20:39.340Z,2.10
2023-05-19T05:23:09.582Z,2.28
2023-05-19T05:25:39.947Z,2.10
2023-05-19T05:28:08.236Z,2.10
2023-05-19T05:30:36.997Z,2.30
2023-05-19T05:33:06.374Z,2.10
2023-05-19T05:35:34.882Z,1.98
2023-05-19T05:38:03.931Z,2.17
2023-05-19T05:40:32.322Z,2.17
2023-05-19T05:43:01.903Z,2.08
2023-05-19T05:45:30.335Z,2.25
2023-05-19T05:47:59.201Z,2.40
2023-05-19T05:50:28.283Z,2.05
2023-05-19T05:52:58.847Z,2.25
2023-05-19T05:55:27.896Z,2.35
2023-05-19T05:57:56.958Z,2.53
2023-05-19T06:00:28.344Z,2.20
2023-05-19T06:02:57.320Z,2.33
2023-05-19T06:05:26.030Z,2.67
2023-05-19T06:07:54.254Z,2.20
2023-05-19T06:10:22.623Z,1.95
2023-05-19T06:12:51.000Z,2.30
2023-05-19T06:15:19.425Z,2.10
2023-05-19T06:17:49.189Z,2.50
2023-05-19T06:20:17.421Z,2.30
2023-05-19T06:22:45.634Z,2.10
2023-05-19T06:25:14.051Z,2.17
2023-05-19T06:27:42.830Z,2.05
2023-05-19T06:30:11.515Z,2.17
2023-05-19T06:32:39.710Z,1.95
2023-05-19T06:35:09.862Z,1.85
2023-05-19T06:37:38.042Z,1.90
2023-05-19T06:40:07.243Z,1.67
2023-05-19T06:42:35.582Z,1.60
2023-05-19T06:45:03.864Z,1.60
2023-05-19T06:47:32.114Z,2.10
2023-05-19T06:50:00.367Z,1.83
2023-05-19T06:52:29.968Z,2.00
2023-05-19T06:54:58.168Z,1.83
2023-05-19T06:57:26.324Z,2.15
2023-05-19T06:59:54.508Z,2.00
2023-05-19T07:02:22.706Z,2.13
2023-05-19T07:04:52.752Z,2.15
2023-05-19T07:07:20.968Z,2.10
2023-05-19T07:09:50.616Z,1.73
2023-05-19T07:12:19.078Z,1.75
2023-05-19T07:14:47.262Z,2.17
2023-05-19T07:17:15.959Z,1.67
2023-05-19T07:19:44.187Z,1.83
2023-05-19T07:22:12.394Z,1.70
2023-05-19T07:24:40.824Z,2.00
2023-05-19T07:27:10.930Z,1.80
2023-05-19T07:29:39.129Z,1.80
2023-05-19T07:32:08.185Z,1.42
2023-05-19T07:34:36.832Z,1.55
2023-05-19T07:37:05.273Z,2.00
2023-05-19T07:39:33.474Z,1.83
2023-05-19T07:42:01.939Z,1.90
2023-05-19T07:44:32.332Z,1.95
2023-05-19T07:47:00.775Z,1.95
2023-05-19T07:49:29.519Z,2.10
2023-05-19T07:51:58.218Z,2.05
2023-05-19T07:54:26.452Z,1.77
2023-05-19T07:56:54.653Z,1.73
2023-05-19T07:59:22.968Z,1.83
2023-05-19T08:01:52.553Z,2.00
2023-05-19T08:04:20.828Z,1.90
2023-05-19T08:06:49.057Z,1.90
2023-05-19T08:09:17.261Z,1.98
2023-05-19T08:11:46.928Z,1.83
2023-05-19T08:14:15.163Z,1.50
2023-05-19T08:16:43.961Z,1.80
2023-05-19T08:19:13.652Z,1.67
2023-05-19T08:21:42.377Z,1.98
2023-05-19T08:24:10.618Z,1.60
2023-05-19T08:26:38.830Z,1.67
2023-05-19T08:29:07.066Z,1.80
2023-05-19T08:31:35.282Z,1.88
2023-05-19T08:34:03.552Z,2.03
2023-05-19T08:36:33.945Z,1.73
2023-05-19T08:39:02.164Z,1.90
2023-05-19T08:41:30.396Z,1.70
2023-05-19T08:43:58.606Z,2.08
2023-05-19T08:46:27.826Z,1.98
2023-05-19T08:49:00.130Z,1.90
2023-05-19T08:51:40.251Z,1.80
2023-05-19T08:54:15.798Z,2.00
2023-05-19T08:56:45.582Z,2.00
2023-05-19T08:59:15.299Z,2.20
2023-05-19T09:01:46.454Z,2.42
2023-05-19T09:04:15.344Z,2.30
2023-05-19T09:06:45.323Z,2.00
2023-05-19T09:09:13.797Z,2.13
2023-05-19T09:11:42.210Z,2.00
2023-05-19T09:14:10.411Z,2.10
2023-05-19T09:16:38.951Z,1.95
2023-05-19T09:19:08.802Z,8.15
2023-05-19T09:21:37.495Z,7.53
2023-05-19T09:24:08.660Z,7.30
2023-05-19T09:26:40.754Z,3.08
2023-05-19T09:29:15.657Z,2.00
2023-05-19T09:31:51.212Z,2.03
2023-05-19T09:34:19.621Z,2.42
2023-05-19T09:36:49.573Z,1.80
2023-05-19T09:39:20.379Z,2.30
2023-05-19T09:41:48.823Z,2.40
2023-05-19T09:44:23.783Z,2.80
2023-05-19T09:46:53.087Z,2.40
2023-05-19T09:49:22.887Z,2.20
2023-05-19T09:51:52.372Z,2.40
2023-05-19T09:54:23.743Z,8.20
2023-05-19T09:59:29.738Z,2.42
2023-05-19T10:02:01.026Z,3.53
2023-05-19T10:04:31.023Z,3.33
2023-05-19T10:07:00.570Z,2.80
2023-05-19T10:09:30.940Z,2.80
2023-05-19T10:12:00.210Z,2.88
2023-05-19T10:14:29.438Z,2.35
2023-05-19T10:16:59.886Z,2.63
2023-05-19T10:19:29.648Z,2.17
2023-05-19T10:21:58.122Z,2.45
2023-05-19T10:24:26.741Z,2.33
2023-05-19T10:26:59.640Z,2.28
2023-05-19T10:29:31.725Z,2.47
2023-05-19T10:32:06.003Z,2.60
2023-05-19T10:35:04.008Z,2.60
2023-05-19T10:37:42.922Z,2.20
2023-05-19T10:40:20.263Z,2.30
2023-05-19T10:43:01.403Z,2.67
2023-05-19T10:45:35.934Z,2.20
2023-05-19T10:48:04.716Z,2.75
2023-05-19T10:50:37.874Z,2.60
2023-05-19T10:53:06.117Z,2.47
2023-05-19T10:55:48.713Z,3.80
2023-05-19T10:58:39.233Z,2.72
2023-05-19T11:01:14.251Z,2.70
2023-05-19T11:03:52.128Z,2.85
2023-05-19T11:06:27.668Z,2.38
2023-05-19T11:09:01.463Z,2.90
2023-05-19T11:11:45.920Z,2.42
2023-05-19T11:14:17.365Z,2.63
2023-05-19T11:19:21.396Z,3.00
2023-05-19T11:21:50.897Z,3.00
2023-05-19T11:24:40.078Z,3.17
2023-05-19T11:27:28.501Z,2.85
2023-05-19T11:29:59.331Z,2.88
2023-05-19T11:32:30.990Z,3.53
2023-05-19T11:34:59.535Z,2.78
2023-05-19T11:37:28.960Z,2.95
2023-05-19T11:39:57.163Z,2.90
2023-05-19T11:42:25.476Z,2.75
2023-05-19T11:44:57.992Z,2.72
2023-05-19T11:47:26.968Z,2.78
2023-05-19T11:49:56.686Z,3.00
2023-05-19T11:52:25.614Z,2.65
2023-05-19T11:54:53.848Z,2.60
2023-05-19T11:57:22.551Z,2.63
2023-05-19T11:59:52.444Z,2.80
2023-05-19T12:02:24.932Z,2.45
2023-05-19T12:04:53.901Z,2.63
2023-05-19T12:07:24.115Z,3.50
2023-05-19T12:09:53.684Z,2.40
2023-05-19T12:12:23.165Z,2.58
2023-05-19T12:14:52.556Z,3.08
2023-05-19T12:17:24.199Z,2.60
2023-05-19T12:19:52.776Z,3.10
2023-05-19T12:22:21.214Z,2.70
2023-05-19T12:24:50.175Z,2.78
2023-05-19T12:27:20.573Z,2.67
2023-05-19T12:29:52.326Z,2.70
2023-05-19T12:32:25.543Z,2.35
2023-05-19T12:34:54.182Z,2.55
2023-05-19T12:37:22.784Z,2.20
2023-05-19T12:39:51.866Z,2.22
2023-05-19T12:42:20.744Z,2.50
2023-05-19T12:44:51.679Z,1.90
2023-05-19T12:47:22.369Z,2.50
2023-05-19T12:49:57.920Z,2.63
2023-05-19T12:52:26.974Z,2.40
2023-05-19T12:55:00.571Z,2.50
2023-05-19T12:57:29.698Z,2.30
2023-05-19T13:00:02.364Z,2.40
2023-05-19T13:02:32.237Z,2.20
2023-05-19T13:05:00.547Z,1.98
2023-05-19T13:07:28.894Z,2.17
2023-05-19T13:09:57.276Z,2.28
2023-05-19T13:12:26.227Z,2.30
2023-05-19T13:14:55.772Z,2.00
2023-05-19T13:17:24.753Z,1.73
2023-05-19T13:19:54.436Z,2.03
2023-05-19T13:22:22.771Z,1.90
2023-05-19T13:24:51.115Z,1.80
2023-05-19T13:27:19.342Z,1.85
2023-05-19T13:29:47.533Z,2.03
2023-05-19T13:32:15.864Z,1.90
2023-05-19T13:34:44.012Z,1.83
2023-05-19T13:37:13.692Z,2.20
2023-05-19T13:39:41.948Z,2.00
2023-05-19T13:42:10.203Z,1.80
2023-05-19T13:44:38.436Z,2.05
2023-05-19T13:47:06.911Z,2.00
2023-05-19T13:49:35.210Z,2.05
2023-05-19T13:52:03.530Z,2.03
2023-05-19T13:54:33.811Z,2.10
2023-05-19T13:57:02.111Z,2.13
2023-05-19T13:59:30.974Z,2.10
2023-05-19T14:01:59.184Z,2.22
2023-05-19T14:04:27.410Z,2.50
2023-05-19T14:06:55.971Z,2.35
2023-05-19T14:09:24.596Z,1.92
2023-05-19T14:11:54.206Z,2.70
2023-05-19T14:14:22.828Z,2.20
2023-05-19T14:16:51.083Z,2.75
2023-05-19T14:19:19.392Z,2.17
2023-05-19T14:21:47.614Z,2.78
2023-05-19T14:24:15.840Z,2.50
2023-05-19T14:26:44.050Z,2.60
2023-05-19T14:29:14.091Z,2.50
2023-05-19T14:31:42.384Z,2.58
2023-05-19T14:34:10.652Z,2.53
2023-05-19T14:36:38.862Z,2.42
2023-05-19T14:39:07.045Z,2.55
2023-05-19T14:41:35.228Z,2.42
2023-05-19T14:44:03.471Z,2.72
2023-05-19T14:46:33.344Z,2.72
2023-05-19T14:49:01.603Z,2.72
2023-05-19T14:51:29.780Z,2.78
2023-05-19T14:53:58.074Z,3.05
2023-05-19T14:56:26.748Z,2.90
2023-05-19T14:58:54.956Z,3.35
2023-05-19T15:01:23.269Z,3.30
2023-05-19T15:03:53.086Z,3.33
2023-05-19T15:06:21.481Z,3.53
2023-05-19T15:08:49.716Z,3.72
2023-05-19T15:11:17.945Z,3.50
2023-05-19T15:13:46.174Z,3.70
2023-05-19T15:16:16.753Z,3.42
2023-05-19T15:18:46.575Z,3.55
2023-05-19T15:21:16.158Z,4.00
2023-05-19T15:23:44.365Z,3.88
2023-05-19T15:26:12.619Z,3.78
2023-05-19T15:28:40.920Z,4.10
2023-05-19T15:31:09.152Z,3.90
2023-05-19T15:33:37.440Z,4.07
2023-05-19T15:36:06.147Z,4.00
2023-05-19T15:38:37.526Z,4.47
2023-05-19T15:41:08.983Z,4.43
2023-05-19T15:46:05.333Z,4.28
2023-05-19T15:48:33.820Z,4.18
2023-05-19T15:51:02.120Z,4.43
2023-05-19T15:53:30.373Z,4.38
2023-05-19T15:56:00.334Z,4.10
2023-05-19T15:58:29.682Z,4.18
2023-05-19T16:00:58.031Z,4.18
2023-05-19T16:03:26.397Z,4.35
2023-05-19T16:05:54.970Z,4.32
2023-05-19T16:08:23.169Z,4.32
2023-05-19T16:10:51.535Z,4.35
2023-05-19T16:13:21.107Z,4.80
2023-05-19T16:15:49.509Z,4.88
2023-05-19T16:18:17.790Z,5.22
2023-05-19T16:20:46.167Z,4.88
2023-05-19T16:23:14.375Z,4.65
2023-05-19T16:25:42.648Z,4.40
2023-05-19T16:28:10.854Z,4.90
2023-05-19T16:30:40.478Z,4.90
2023-05-19T16:33:08.774Z,5.05
2023-05-19T16:35:37.379Z,4.68
2023-05-19T16:38:05.620Z,4.65
2023-05-19T16:40:34.017Z,4.32
2023-05-19T16:43:02.400Z,4.43
2023-05-19T16:45:30.651Z,4.80
2023-05-19T16:48:00.397Z,4.43
2023-05-19T16:50:28.663Z,4.57
2023-05-19T16:52:56.931Z,4.50
2023-05-19T16:55:26.735Z,4.75
2023-05-19T16:57:55.084Z,4.55
2023-05-19T17:00:23.490Z,4.78
2023-05-19T17:02:51.772Z,5.18
2023-05-19T17:05:21.383Z,4.57
2023-05-19T17:07:49.596Z,5.07
2023-05-19T17:10:17.906Z,4.88
2023-05-19T17:12:46.130Z,4.60
2023-05-19T17:15:15.387Z,4.57
2023-05-19T17:17:43.615Z,4.63
2023-05-19T17:20:13.409Z,4.47
2023-05-19T17:22:43.027Z,4.72
2023-05-19T17:25:11.800Z,4.80
2023-05-19T17:27:40.101Z,4.72
2023-05-19T17:30:09.934Z,4.60
2023-05-19T17:32:39.466Z,4.60
2023-05-19T17:35:08.884Z,4.38
2023-05-19T17:37:37.281Z,4.28
2023-05-19T17:40:08.354Z,4.53
2023-05-19T17:42:36.529Z,4.82
2023-05-19T17:45:07.658Z,4.55
2023-05-19T17:47:35.904Z,4.65
2023-05-19T17:50:04.302Z,4.80
2023-05-19T17:52:33.106Z,4.70
2023-05-19T17:55:01.962Z,4.40
2023-05-19T17:57:33.178Z,4.35
2023-05-19T18:00:03.002Z,4.60
2023-05-19T18:02:31.742Z,4.75
2023-05-19T18:05:00.661Z,4.88
2023-05-19T18:07:30.268Z,4.78
2023-05-19T18:10:01.514Z,4.72
2023-05-19T18:12:31.206Z,4.50
2023-05-19T18:14:59.515Z,4.57
2023-05-19T18:17:27.895Z,4.65
2023-05-19T18:19:56.294Z,4.65
2023-05-19T18:22:24.487Z,4.32
2023-05-19T18:24:53.026Z,4.45
2023-05-19T18:27:21.193Z,4.53
2023-05-19T18:29:50.811Z,4.70
2023-05-19T18:32:19.040Z,4.68
2023-05-19T18:34:47.276Z,4.70
2023-05-19T18:37:15.476Z,4.93
2023-05-19T18:39:43.719Z,4.90
2023-05-19T18:42:12.085Z,4.93
2023-05-19T18:44:40.242Z,4.72
2023-05-19T18:47:09.958Z,5.22
2023-05-19T18:49:38.148Z,4.88
2023-05-19T18:52:06.998Z,4.95
2023-05-19T18:54:35.322Z,4.90
2023-05-19T18:57:03.608Z,4.50
2023-05-19T18:59:31.877Z,4.90
2023-05-19T19:02:00.109Z,5.10
2023-05-19T19:04:29.798Z,4.93
2023-05-19T19:06:58.037Z,5.28
2023-05-19T19:09:26.220Z,4.90
2023-05-19T19:11:54.413Z,5.00
2023-05-19T19:14:22.644Z,5.60
2023-05-19T19:16:50.953Z,6.20
2023-05-19T19:19:19.256Z,5.78
2023-05-19T19:21:48.955Z,6.13
2023-05-19T19:24:17.121Z,4.95
2023-05-19T19:26:45.352Z,4.97
2023-05-19T19:29:13.683Z,7.13
2023-05-19T19:31:41.930Z,7.47
2023-05-19T19:34:11.264Z,6.78
2023-05-19T19:36:39.532Z,7.03
2023-05-19T19:39:09.521Z,7.10
2023-05-19T19:41:37.723Z,6.70
2023-05-19T19:44:06.482Z,6.95
2023-05-19T19:46:35.184Z,6.85
2023-05-19T19:49:03.465Z,7.03
2023-05-19T19:51:32.389Z,8.38
2023-05-19T19:54:00.635Z,10.52
2023-05-19T19:56:30.189Z,13.20
2023-05-19T19:58:59.212Z,10.05
2023-05-19T20:01:28.185Z,8.27
2023-05-19T20:03:57.488Z,6.93
2023-05-19T20:06:26.099Z,6.82
2023-05-19T20:08:54.356Z,6.38
2023-05-19T20:11:24.277Z,7.25
2023-05-19T20:13:54.176Z,6.65
2023-05-19T20:16:24.206Z,7.13
2023-05-19T20:18:52.589Z,6.53
2023-05-19T20:21:20.843Z,6.47
2023-05-19T20:23:50.459Z,6.53
2023-05-19T20:26:18.772Z,6.93
2023-05-19T20:28:46.970Z,6.63
2023-05-19T20:31:16.581Z,6.65
2023-05-19T20:33:44.794Z,6.68
2023-05-19T20:36:13.016Z,7.15
2023-05-19T20:38:41.180Z,7.18
2023-05-19T20:41:09.517Z,6.22
2023-05-19T20:43:37.763Z,6.43
2023-05-19T20:46:06.135Z,6.70
2023-05-19T20:48:36.004Z,6.20
2023-05-19T20:51:04.241Z,6.00
2023-05-19T20:53:32.463Z,5.55
2023-05-19T20:56:00.762Z,5.47
2023-05-19T20:58:30.335Z,5.60
2023-05-19T21:00:58.662Z,5.22
2023-05-19T21:03:27.355Z,5.22
2023-05-19T21:05:57.157Z,5.75
2023-05-19T21:08:25.697Z,5.30
2023-05-19T21:10:53.869Z,5.53
2023-05-19T21:13:22.089Z,5.30
2023-05-19T21:15:50.330Z,5.40
2023-05-19T21:18:18.549Z,5.53
2023-05-19T21:20:46.831Z,5.07
2023-05-19T21:23:16.409Z,5.60
2023-05-19T21:25:45.404Z,5.10
2023-05-19T21:28:13.816Z,5.32
2023-05-19T21:30:42.042Z,5.30
2023-05-19T21:33:10.298Z,5.35
2023-05-19T21:35:38.784Z,5.40
2023-05-19T21:38:22.100Z,5.40
2023-05-19T21:40:53.121Z,5.20
2023-05-19T21:43:21.873Z,5.10
2023-05-19T21:45:50.129Z,5.32
2023-05-19T21:48:18.390Z,5.07
2023-05-19T21:50:46.809Z,5.70
2023-05-19T21:53:14.986Z,5.22
2023-05-19T21:55:43.190Z,5.28
2023-05-19T21:58:12.824Z,5.50
2023-05-19T22:00:41.043Z,5.50
2023-05-19T22:03:09.400Z,5.57
2023-05-19T22:05:38.546Z,5.63
2023-05-19T22:08:06.831Z,5.57
2023-05-19T22:10:37.090Z,5.32
2023-05-19T22:13:05.554Z,5.65
2023-05-19T22:15:35.244Z,5.53
2023-05-19T22:18:03.556Z,5.40
2023-05-19T22:20:32.020Z,5.57
2023-05-19T22:23:01.288Z,5.60
2023-05-19T22:25:29.491Z,5.15
2023-05-19T22:27:57.761Z,5.57
2023-05-19T22:30:26.191Z,5.75
2023-05-19T22:32:55.851Z,5.55
2023-05-19T22:35:24.338Z,5.55
2023-05-19T22:37:52.573Z,5.72
2023-05-19T22:40:20.901Z,5.53
2023-05-19T22:42:49.134Z,5.22
2023-05-19T22:45:17.342Z,5.30
2023-05-19T22:47:45.548Z,5.32
2023-05-19T22:50:16.645Z,5.50
2023-05-19T22:52:44.836Z,5.32
2023-05-19T22:55:13.079Z,5.55
2023-05-19T22:57:41.243Z,5.60
2023-05-19T23:00:10.529Z,5.28
2023-05-19T23:02:38.728Z,5.40
2023-05-19T23:05:07.712Z,4.97
2023-05-19T23:07:37.278Z,5.03
2023-05-19T23:10:07.560Z,5.63
2023-05-19T23:12:35.839Z,5.10
2023-05-19T23:15:04.196Z,5.55
2023-05-19T23:17:32.417Z,5.78
2023-05-19T23:20:00.630Z,5.60
2023-05-19T23:22:28.881Z,5.93
2023-05-19T23:24:58.687Z,6.18
2023-05-19T23:27:27.080Z,5.82
2023-05-19T23:29:55.256Z,6.30
2023-05-19T23:32:23.607Z,5.32
2023-05-19T23:34:51.937Z,5.63
2023-05-19T23:37:20.172Z,5.75
2023-05-19T23:39:48.337Z,5.25
2023-05-19T23:42:17.910Z,5.60
2023-05-19T23:44:46.140Z,5.55
2023-05-19T23:47:14.337Z,5.53
2023-05-19T23:49:42.499Z,5.32
2023-05-19T23:52:10.723Z,5.72
2023-05-19T23:54:38.903Z,5.50
2023-05-19T23:57:08.910Z,5.68
2023-05-19T23:59:38.567Z,5.47
